createdAt,value
2022-07-29T00:01:03.709Z,98258.66
2022-07-29T00:03:30.287Z,98256.38
2022-07-29T00:05:56.856Z,98259.97
2022-07-29T00:08:23.391Z,98251.75
2022-07-29T00:10:50.824Z,98249.00
2022-07-29T00:13:17.332Z,98254.38
2022-07-29T00:15:43.799Z,98247.38
2022-07-29T00:18:10.249Z,98247.31
2022-07-29T00:20:36.839Z,98244.44
2022-07-29T00:23:03.274Z,98256.94
2022-07-29T00:25:29.794Z,98253.47
2022-07-29T00:27:57.223Z,98253.59
2022-07-29T00:30:23.811Z,98260.94
2022-07-29T00:32:50.271Z,98253.25
2022-07-29T00:35:35.169Z,98242.91
2022-07-29T00:38:02.148Z,98246.44
2022-07-29T00:40:28.741Z,98247.38
2022-07-29T00:42:55.199Z,98244.94
2022-07-29T00:45:22.930Z,98241.22
2022-07-29T00:47:50.147Z,98239.72
2022-07-29T00:50:16.941Z,98239.47
2022-07-29T00:52:44.172Z,98237.69
2022-07-29T00:55:13.335Z,98229.38
2022-07-29T00:57:41.709Z,98227.91
2022-07-29T01:00:11.041Z,98221.06
2022-07-29T01:02:38.006Z,98236.06
2022-07-29T01:05:06.236Z,98243.00
2022-07-29T01:07:35.874Z,98244.94
2022-07-29T01:10:05.446Z,98242.69
2022-07-29T01:12:34.678Z,98249.75
2022-07-29T01:15:03.495Z,98247.00
2022-07-29T01:17:37.943Z,98249.31
2022-07-29T01:20:10.409Z,98241.41
2022-07-29T01:23:01.285Z,98253.63
2022-07-29T01:25:50.730Z,98255.06
2022-07-29T01:28:43.802Z,98262.97
2022-07-29T01:31:23.738Z,98268.59
2022-07-29T01:34:02.679Z,98279.69
2022-07-29T01:36:36.577Z,98273.91
2022-07-29T01:39:33.314Z,98262.63
2022-07-29T01:42:22.815Z,98259.09
2022-07-29T01:45:01.319Z,98262.66
2022-07-29T01:47:55.061Z,98249.75
2022-07-29T01:50:27.178Z,98246.53
2022-07-29T01:52:57.322Z,98243.50
2022-07-29T01:55:28.620Z,98254.25
2022-07-29T01:57:57.260Z,98247.34
2022-07-29T02:00:24.729Z,98250.09
2022-07-29T02:02:53.707Z,98248.97
2022-07-29T02:05:22.654Z,98249.13
2022-07-29T02:07:50.515Z,98249.28
2022-07-29T02:10:20.479Z,98249.13
2022-07-29T02:12:54.556Z,98255.72
2022-07-29T02:15:21.915Z,98259.72
2022-07-29T02:17:55.732Z,98251.22
2022-07-29T02:20:24.682Z,98251.69
2022-07-29T02:22:53.060Z,98254.44
2022-07-29T02:25:21.958Z,98255.88
2022-07-29T02:27:51.550Z,98246.38
2022-07-29T02:30:20.616Z,98243.97
2022-07-29T02:32:48.409Z,98243.78
2022-07-29T02:35:17.123Z,98237.69
2022-07-29T02:38:06.484Z,98242.19
2022-07-29T02:40:35.861Z,98252.81
2022-07-29T02:43:05.129Z,98251.34
2022-07-29T02:45:33.377Z,98252.16
2022-07-29T02:48:01.813Z,98262.44
2022-07-29T02:50:35.529Z,98252.00
2022-07-29T02:53:17.216Z,98252.31
2022-07-29T02:56:10.121Z,98248.31
2022-07-29T02:58:41.973Z,98246.69
2022-07-29T03:01:21.416Z,98249.63
2022-07-29T03:03:50.625Z,98251.22
2022-07-29T03:06:28.199Z,98248.78
2022-07-29T03:09:07.826Z,98244.63
2022-07-29T03:11:42.337Z,98245.91
2022-07-29T03:14:18.045Z,98246.38
2022-07-29T03:16:45.168Z,98255.38
2022-07-29T03:19:12.069Z,98252.81
2022-07-29T03:21:38.517Z,98239.72
2022-07-29T03:24:10.061Z,98245.56
2022-07-29T03:26:37.168Z,98244.59
2022-07-29T03:29:03.656Z,98247.34
2022-07-29T03:31:30.194Z,98255.38
2022-07-29T03:33:56.881Z,98256.03
2022-07-29T03:36:23.322Z,98263.09
2022-07-29T03:38:50.423Z,98263.59
2022-07-29T03:41:22.316Z,98257.63
2022-07-29T03:43:51.134Z,98263.94
2022-07-29T03:46:18.884Z,98265.19
2022-07-29T03:48:49.650Z,98267.31
2022-07-29T03:51:16.377Z,98274.34
2022-07-29T03:53:43.630Z,98272.53
2022-07-29T03:56:11.242Z,98264.19
2022-07-29T03:58:39.140Z,98261.00
2022-07-29T04:01:05.889Z,98269.50
2022-07-29T04:03:32.460Z,98264.84
2022-07-29T04:06:07.472Z,98272.13
2022-07-29T04:08:34.577Z,98264.56
2022-07-29T04:11:02.389Z,98266.81
2022-07-29T04:13:28.976Z,98274.69
2022-07-29T04:15:55.482Z,98271.31
2022-07-29T04:18:22.289Z,98277.41
2022-07-29T04:20:48.773Z,98277.75
2022-07-29T04:23:15.331Z,98283.06
2022-07-29T04:25:42.913Z,98275.81
2022-07-29T04:28:10.570Z,98274.03
2022-07-29T04:30:38.127Z,98266.31
2022-07-29T04:33:06.928Z,98276.97
2022-07-29T04:35:38.901Z,98275.50
2022-07-29T04:38:17.275Z,98278.22
2022-07-29T04:40:43.986Z,98270.69
2022-07-29T04:43:10.585Z,98270.66
2022-07-29T04:45:39.113Z,98278.88
2022-07-29T04:48:05.791Z,98285.47
2022-07-29T04:50:32.794Z,98290.13
2022-07-29T04:52:59.281Z,98300.28
2022-07-29T04:55:26.308Z,98303.47
2022-07-29T04:57:52.770Z,98303.84
2022-07-29T05:00:19.250Z,98302.38
2022-07-29T05:02:45.817Z,98303.03
2022-07-29T05:05:12.413Z,98314.13
2022-07-29T05:07:41.775Z,98305.13
2022-07-29T05:10:08.916Z,98300.44
2022-07-29T05:12:35.525Z,98302.72
2022-07-29T05:15:01.957Z,98307.88
2022-07-29T05:17:28.478Z,98306.88
2022-07-29T05:19:54.926Z,98316.06
2022-07-29T05:22:21.877Z,98309.63
2022-07-29T05:24:48.627Z,98306.75
2022-07-29T05:27:15.236Z,98313.50
2022-07-29T05:29:44.298Z,98318.00
2022-07-29T05:32:12.806Z,98323.81
2022-07-29T05:34:50.877Z,98316.88
2022-07-29T05:37:19.988Z,98328.28
2022-07-29T05:39:49.090Z,98323.34
2022-07-29T05:42:17.524Z,98321.25
2022-07-29T05:44:44.017Z,98312.41
2022-07-29T05:47:10.545Z,98314.97
2022-07-29T05:49:37.037Z,98318.66
2022-07-29T05:52:04.258Z,98316.72
2022-07-29T05:54:30.787Z,98324.78
2022-07-29T05:56:57.506Z,98322.69
2022-07-29T05:59:28.339Z,98323.78
2022-07-29T06:01:58.070Z,98329.59
2022-07-29T06:04:24.769Z,98330.03
2022-07-29T06:06:51.333Z,98326.97
2022-07-29T06:09:17.788Z,98327.25
2022-07-29T06:11:44.230Z,98332.06
2022-07-29T06:14:10.721Z,98333.66
2022-07-29T06:16:37.305Z,98335.56
2022-07-29T06:19:03.852Z,98338.34
2022-07-29T06:21:30.373Z,98340.81
2022-07-29T06:23:56.930Z,98338.88
2022-07-29T06:26:30.315Z,98348.38
2022-07-29T06:28:58.130Z,98348.19
2022-07-29T06:31:24.719Z,98353.19
2022-07-29T06:33:51.528Z,98352.31
2022-07-29T06:36:21.714Z,98363.34
2022-07-29T06:38:51.360Z,98360.94
2022-07-29T06:41:19.008Z,98358.00
2022-07-29T06:43:52.586Z,98361.66
2022-07-29T06:46:22.450Z,98369.53
2022-07-29T06:48:49.747Z,98366.53
2022-07-29T06:51:22.977Z,98368.72
2022-07-29T06:54:00.140Z,98377.28
2022-07-29T06:56:30.738Z,98390.66
2022-07-29T06:58:57.182Z,98393.91
2022-07-29T07:01:23.842Z,98398.25
2022-07-29T07:03:50.404Z,98401.47
2022-07-29T07:06:17.310Z,98405.22
2022-07-29T07:08:43.804Z,98402.97
2022-07-29T07:11:10.301Z,98395.09
2022-07-29T07:13:37.010Z,98412.34
2022-07-29T07:16:04.608Z,98423.00
2022-07-29T07:18:31.580Z,98413.00
2022-07-29T07:20:58.375Z,98420.06
2022-07-29T07:23:24.964Z,98418.75
2022-07-29T07:25:52.119Z,98417.63
2022-07-29T07:28:19.580Z,98421.84
2022-07-29T07:30:51.796Z,98419.09
2022-07-29T07:33:18.327Z,98425.22
2022-07-29T07:35:45.224Z,98422.66
2022-07-29T07:38:11.794Z,98431.34
2022-07-29T07:40:38.466Z,98433.88
2022-07-29T07:43:05.039Z,98432.91
2022-07-29T07:45:33.601Z,98433.44
2022-07-29T07:48:00.161Z,98430.84
2022-07-29T07:50:26.958Z,98430.19
2022-07-29T07:52:56.073Z,98436.19
2022-07-29T07:55:22.589Z,98427.34
2022-07-29T07:57:49.089Z,98424.25
2022-07-29T08:00:16.994Z,98428.41
2022-07-29T08:02:44.066Z,98421.81
2022-07-29T08:05:12.581Z,98422.59
2022-07-29T08:07:39.537Z,98419.47
2022-07-29T08:10:06.532Z,98423.50
2022-07-29T08:12:33.088Z,98420.88
2022-07-29T08:14:59.812Z,98411.44
2022-07-29T08:17:27.521Z,98410.31
2022-07-29T08:19:53.991Z,98420.91
2022-07-29T08:22:20.697Z,98417.41
2022-07-29T08:24:57.113Z,98412.63
2022-07-29T08:30:11.244Z,98413.91
2022-07-29T08:32:53.340Z,98414.41
2022-07-29T08:35:21.931Z,98419.41
2022-07-29T08:37:48.660Z,98412.13
2022-07-29T08:40:15.460Z,98418.03
2022-07-29T08:42:42.150Z,98405.50
2022-07-29T08:45:09.414Z,98410.59
2022-07-29T08:47:40.380Z,98409.50
2022-07-29T08:50:09.107Z,98412.34
2022-07-29T08:52:40.946Z,98421.13
2022-07-29T08:55:09.829Z,98422.22
2022-07-29T08:57:37.469Z,98422.84
2022-07-29T09:00:07.983Z,98419.91
2022-07-29T09:02:43.120Z,98422.41
2022-07-29T09:05:13.604Z,98415.59
2022-07-29T09:07:42.955Z,98409.34
2022-07-29T09:10:09.888Z,98410.81
2022-07-29T09:12:38.229Z,98404.97
2022-07-29T09:15:05.323Z,98397.53
2022-07-29T09:17:49.599Z,98402.66
2022-07-29T09:20:24.018Z,98405.66
2022-07-29T09:22:53.663Z,98413.63
2022-07-29T09:25:37.517Z,98405.66
2022-07-29T09:28:17.394Z,98405.84
2022-07-29T09:30:53.385Z,98403.97
2022-07-29T09:33:22.328Z,98405.63
2022-07-29T09:36:00.565Z,98400.91
2022-07-29T09:38:28.436Z,98408.41
2022-07-29T09:41:01.739Z,98399.91
2022-07-29T09:43:33.075Z,98392.78
2022-07-29T09:46:13.509Z,98395.69
2022-07-29T09:48:40.370Z,98392.59
2022-07-29T09:51:20.626Z,98394.38
2022-07-29T09:53:48.773Z,98386.25
2022-07-29T09:56:15.386Z,98388.00
2022-07-29T09:58:41.875Z,98386.47
2022-07-29T10:01:08.512Z,98394.16
2022-07-29T10:03:51.781Z,98390.41
2022-07-29T10:06:18.335Z,98394.44
2022-07-29T10:08:44.936Z,98389.84
2022-07-29T10:11:19.288Z,98396.88
2022-07-29T10:13:48.528Z,98391.91
2022-07-29T10:16:16.006Z,98389.94
2022-07-29T10:18:44.723Z,98386.03
2022-07-29T10:21:34.446Z,98395.81
2022-07-29T10:24:01.154Z,98399.97
2022-07-29T10:26:27.922Z,98400.72
2022-07-29T10:28:54.413Z,98405.72
2022-07-29T10:31:30.571Z,98413.09
2022-07-29T10:34:19.242Z,98407.09
2022-07-29T10:37:04.880Z,98409.03
2022-07-29T10:39:50.820Z,98409.19
2022-07-29T10:42:33.553Z,98398.53
2022-07-29T10:45:02.334Z,98402.50
2022-07-29T10:47:29.006Z,98406.53
2022-07-29T10:50:04.459Z,98416.69
2022-07-29T10:52:51.113Z,98406.22
2022-07-29T10:55:31.628Z,98412.56
2022-07-29T10:58:19.472Z,98409.47
2022-07-29T11:00:48.077Z,98415.81
2022-07-29T11:07:06.169Z,98412.94
2022-07-29T11:09:37.685Z,98412.84
2022-07-29T11:12:25.057Z,98416.16
2022-07-29T11:14:54.243Z,98427.09
2022-07-29T11:17:23.427Z,98423.78
2022-07-29T11:19:52.335Z,98429.63
2022-07-29T11:22:36.465Z,98426.34
2022-07-29T11:25:50.988Z,98435.97
2022-07-29T11:28:22.747Z,98444.22
2022-07-29T11:30:53.941Z,98437.91
2022-07-29T11:33:55.888Z,98444.13
2022-07-29T11:36:28.002Z,98445.84
2022-07-29T11:39:27.137Z,98438.88
2022-07-29T11:42:32.164Z,98440.13
2022-07-29T11:45:41.477Z,98449.84
2022-07-29T11:47:57.795Z,98460.34
2022-07-29T11:50:37.901Z,98468.50
2022-07-29T11:53:13.292Z,98475.25
2022-07-29T11:55:51.816Z,98474.69
2022-07-29T11:58:25.025Z,98467.09
2022-07-29T12:00:52.620Z,98470.81
2022-07-29T12:03:32.946Z,98464.38
2022-07-29T12:06:02.532Z,98463.22
2022-07-29T12:08:29.028Z,98470.00
2022-07-29T12:10:55.669Z,98469.88
2022-07-29T12:13:22.925Z,98471.03
2022-07-29T12:16:03.983Z,98475.75
2022-07-29T12:18:30.520Z,98464.50
2022-07-29T12:21:03.410Z,98474.00
2022-07-29T12:23:34.353Z,98474.72
2022-07-29T12:26:04.535Z,98478.75
2022-07-29T12:28:32.043Z,98478.34
2022-07-29T12:30:58.596Z,98482.03
2022-07-29T12:33:30.535Z,98479.50
2022-07-29T12:36:17.127Z,98479.31
2022-07-29T12:38:44.415Z,98472.31
2022-07-29T12:41:11.405Z,98467.22
2022-07-29T12:43:37.975Z,98474.88
2022-07-29T12:46:14.892Z,98468.91
2022-07-29T12:48:43.474Z,98468.66
2022-07-29T12:51:11.097Z,98465.41
2022-07-29T12:53:38.908Z,98470.94
2022-07-29T12:56:20.732Z,98463.38
2022-07-29T12:58:53.072Z,98474.41
2022-07-29T13:01:21.697Z,98467.13
2022-07-29T13:03:56.941Z,98473.19
2022-07-29T13:06:34.723Z,98482.00
2022-07-29T13:09:06.606Z,98488.53
2022-07-29T13:11:35.398Z,98494.81
2022-07-29T13:14:06.535Z,98502.41
2022-07-29T13:16:33.923Z,98509.31
2022-07-29T13:19:05.687Z,98503.06
2022-07-29T13:21:32.132Z,98499.84
2022-07-29T13:24:02.083Z,98490.56
2022-07-29T13:26:28.864Z,98490.53
2022-07-29T13:28:56.069Z,98495.94
2022-07-29T13:31:23.070Z,98501.47
2022-07-29T13:33:49.678Z,98499.63
2022-07-29T13:36:16.124Z,98501.34
2022-07-29T13:38:42.966Z,98498.59
2022-07-29T13:41:09.501Z,98493.28
2022-07-29T13:43:37.063Z,98491.34
2022-07-29T13:46:03.529Z,98504.22
2022-07-29T13:48:30.037Z,98506.59
2022-07-29T13:50:57.645Z,98496.16
2022-07-29T13:53:26.926Z,98495.13
2022-07-29T13:55:54.150Z,98491.31
2022-07-29T13:58:20.636Z,98500.16
2022-07-29T14:00:47.644Z,98493.88
2022-07-29T14:03:14.165Z,98490.19
2022-07-29T14:05:40.658Z,98484.69
2022-07-29T14:08:07.122Z,98485.75
2022-07-29T14:10:33.643Z,98482.75
2022-07-29T14:13:00.107Z,98487.34
2022-07-29T14:15:26.639Z,98499.13
2022-07-29T14:17:53.105Z,98489.56
2022-07-29T14:20:20.192Z,98484.38
2022-07-29T14:22:46.696Z,98485.31
2022-07-29T14:25:14.485Z,98492.78
2022-07-29T14:27:41.786Z,98494.97
2022-07-29T14:30:09.319Z,98496.50
2022-07-29T14:32:35.882Z,98500.34
2022-07-29T14:35:02.380Z,98503.38
2022-07-29T14:37:28.946Z,98497.53
2022-07-29T14:40:08.906Z,98508.78
2022-07-29T14:42:35.452Z,98500.06
2022-07-29T14:45:01.917Z,98498.22
2022-07-29T14:47:28.416Z,98499.03
2022-07-29T14:49:54.860Z,98500.28
2022-07-29T14:52:21.446Z,98507.88
2022-07-29T14:54:47.960Z,98505.59
2022-07-29T14:57:14.501Z,98509.34
2022-07-29T14:59:41.017Z,98513.06
2022-07-29T15:02:07.533Z,98502.72
2022-07-29T15:04:34.426Z,98505.69
2022-07-29T15:07:01.180Z,98506.16
2022-07-29T15:09:27.890Z,98513.06
2022-07-29T15:11:54.940Z,98513.28
2022-07-29T15:14:21.423Z,98508.69
2022-07-29T15:16:48.361Z,98508.94
2022-07-29T15:19:15.060Z,98510.19
2022-07-29T15:21:48.148Z,98504.97
2022-07-29T15:24:16.761Z,98506.59
2022-07-29T15:26:43.882Z,98499.28
2022-07-29T15:29:10.538Z,98500.84
2022-07-29T15:31:37.178Z,98497.63
2022-07-29T15:34:06.249Z,98493.19
2022-07-29T15:36:51.522Z,98493.75
2022-07-29T15:39:19.248Z,98502.91
2022-07-29T15:41:45.698Z,98491.00
2022-07-29T15:44:12.159Z,98488.91
2022-07-29T15:46:57.382Z,98497.19
2022-07-29T15:49:24.539Z,98496.75
2022-07-29T15:51:50.993Z,98492.19
2022-07-29T15:54:17.749Z,98496.59
2022-07-29T15:56:44.217Z,98487.50
2022-07-29T15:59:10.677Z,98488.03
2022-07-29T16:01:49.356Z,98482.22
2022-07-29T16:04:17.446Z,98480.44
2022-07-29T16:06:46.121Z,98476.47
2022-07-29T16:09:13.295Z,98478.44
2022-07-29T16:11:39.998Z,98477.44
2022-07-29T16:14:06.794Z,98478.22
2022-07-29T16:16:35.789Z,98476.00
2022-07-29T16:19:02.322Z,98462.28
2022-07-29T16:21:28.752Z,98466.22
2022-07-29T16:23:55.306Z,98453.16
2022-07-29T16:26:21.855Z,98457.06
2022-07-29T16:28:48.304Z,98459.66
2022-07-29T16:31:15.497Z,98465.06
2022-07-29T16:33:55.312Z,98459.88
2022-07-29T16:36:22.861Z,98460.28
2022-07-29T16:38:51.201Z,98458.00
2022-07-29T16:41:17.715Z,98458.59
2022-07-29T16:43:44.406Z,98460.47
2022-07-29T16:46:13.114Z,98450.59
2022-07-29T16:48:45.384Z,98449.19
2022-07-29T16:51:12.109Z,98455.03
2022-07-29T16:53:41.297Z,98450.91
2022-07-29T16:56:08.555Z,98448.38
2022-07-29T16:58:43.055Z,98454.84
2022-07-29T17:01:10.170Z,98444.06
2022-07-29T17:03:59.945Z,98448.13
2022-07-29T17:06:27.366Z,98455.78
2022-07-29T17:08:53.790Z,98450.03
2022-07-29T17:11:20.314Z,98444.97
2022-07-29T17:13:46.881Z,98449.63
2022-07-29T17:16:13.391Z,98456.66
2022-07-29T17:18:39.894Z,98455.06
2022-07-29T17:21:06.316Z,98453.00
2022-07-29T17:23:32.796Z,98451.25
2022-07-29T17:25:59.309Z,98454.47
2022-07-29T17:28:25.740Z,98457.13
2022-07-29T17:30:52.179Z,98459.09
2022-07-29T17:33:18.755Z,98458.38
2022-07-29T17:36:03.544Z,98456.78
2022-07-29T17:38:30.068Z,98452.44
2022-07-29T17:40:56.640Z,98450.59
2022-07-29T17:43:23.094Z,98458.38
2022-07-29T17:45:50.881Z,98453.25
2022-07-29T17:48:18.831Z,98457.38
2022-07-29T17:50:46.036Z,98457.50
2022-07-29T17:54:30.491Z,98454.53
2022-07-29T17:56:57.337Z,98452.69
2022-07-29T17:59:23.999Z,98453.63
2022-07-29T18:01:50.560Z,98465.91
2022-07-29T18:04:20.873Z,98453.50
2022-07-29T18:06:47.353Z,98458.91
2022-07-29T18:09:13.915Z,98452.25
2022-07-29T18:11:40.600Z,98463.16
2022-07-29T18:14:10.962Z,98456.28
2022-07-29T18:16:38.387Z,98456.84
2022-07-29T18:19:05.090Z,98453.41
2022-07-29T18:21:43.536Z,98462.34
2022-07-29T18:24:17.989Z,98467.84
2022-07-29T18:26:44.561Z,98461.63
2022-07-29T18:29:11.012Z,98456.34
2022-07-29T18:31:37.629Z,98458.63
2022-07-29T18:34:04.166Z,98464.13
2022-07-29T18:36:30.809Z,98458.16
2022-07-29T18:38:57.249Z,98461.94
2022-07-29T18:41:23.712Z,98466.53
2022-07-29T18:43:50.139Z,98470.50
2022-07-29T18:46:16.627Z,98475.66
2022-07-29T18:48:43.110Z,98476.47
2022-07-29T18:51:09.712Z,98472.13
2022-07-29T18:53:37.051Z,98470.97
2022-07-29T18:56:03.881Z,98477.03
2022-07-29T18:58:30.399Z,98483.88
2022-07-29T19:00:56.838Z,98481.03
2022-07-29T19:03:23.277Z,98477.63
2022-07-29T19:05:49.930Z,98483.56
2022-07-29T19:08:16.359Z,98488.38
2022-07-29T19:10:42.896Z,98485.03
2022-07-29T19:13:09.632Z,98492.50
2022-07-29T19:15:39.995Z,98495.13
2022-07-29T19:18:07.121Z,98500.09
2022-07-29T19:20:33.777Z,98503.25
2022-07-29T19:23:00.221Z,98500.69
2022-07-29T19:25:26.678Z,98504.94
2022-07-29T19:27:53.109Z,98511.50
2022-07-29T19:30:19.777Z,98511.81
2022-07-29T19:32:46.441Z,98512.72
2022-07-29T19:35:25.187Z,98525.38
2022-07-29T19:37:52.632Z,98526.06
2022-07-29T19:40:20.020Z,98532.03
2022-07-29T19:42:48.190Z,98530.16
2022-07-29T19:45:14.683Z,98535.88
2022-07-29T19:47:41.148Z,98529.47
2022-07-29T19:50:08.439Z,98535.56
2022-07-29T19:52:35.170Z,98538.59
2022-07-29T19:55:07.071Z,98540.59
2022-07-29T19:57:40.966Z,98544.38
2022-07-29T20:00:11.139Z,98548.41
2022-07-29T20:02:38.734Z,98544.25
2022-07-29T20:05:06.036Z,98552.94
2022-07-29T20:07:32.519Z,98551.25
2022-07-29T20:09:59.312Z,98558.03
2022-07-29T20:12:25.823Z,98556.16
2022-07-29T20:14:52.893Z,98563.50
2022-07-29T20:17:22.039Z,98566.44
2022-07-29T20:19:49.795Z,98568.53
2022-07-29T20:22:21.067Z,98569.66
2022-07-29T20:24:48.335Z,98572.16
2022-07-29T20:27:14.822Z,98565.75
2022-07-29T20:29:41.274Z,98562.88
2022-07-29T20:32:07.825Z,98565.94
2022-07-29T20:34:34.378Z,98574.03
2022-07-29T20:37:02.698Z,98580.22
2022-07-29T20:39:29.452Z,98569.56
2022-07-29T20:41:56.142Z,98571.94
2022-07-29T20:44:24.204Z,98576.00
2022-07-29T20:46:50.681Z,98583.81
2022-07-29T20:49:17.363Z,98564.75
2022-07-29T20:51:44.256Z,98574.28
2022-07-29T20:54:11.146Z,98571.84
2022-07-29T20:56:38.220Z,98574.78
2022-07-29T20:59:04.737Z,98581.06
2022-07-29T21:01:31.215Z,98574.00
2022-07-29T21:03:57.741Z,98577.03
2022-07-29T21:06:24.214Z,98580.59
2022-07-29T21:08:50.658Z,98582.88
2022-07-29T21:11:17.676Z,98585.59
2022-07-29T21:14:04.193Z,98577.38
2022-07-29T21:16:33.326Z,98580.13
2022-07-29T21:18:59.864Z,98576.53
2022-07-29T21:21:26.885Z,98580.88
2022-07-29T21:23:53.336Z,98580.88
2022-07-29T21:26:19.911Z,98572.19
2022-07-29T21:28:46.387Z,98575.09
2022-07-29T21:31:16.968Z,98581.69
2022-07-29T21:33:46.319Z,98582.31
2022-07-29T21:36:46.805Z,98584.22
2022-07-29T21:39:06.714Z,98588.41
2022-07-29T21:41:33.609Z,98591.00
2022-07-29T21:44:00.067Z,98590.78
2022-07-29T21:46:28.104Z,98590.03
2022-07-29T21:48:54.624Z,98587.41
2022-07-29T21:51:21.164Z,98586.31
2022-07-29T21:53:47.622Z,98591.78
2022-07-29T21:56:14.967Z,98587.88
2022-07-29T21:58:42.008Z,98593.34
2022-07-29T22:01:08.483Z,98592.38
2022-07-29T22:03:35.027Z,98593.19
2022-07-29T22:06:01.521Z,98593.81
2022-07-29T22:08:27.936Z,98593.00
2022-07-29T22:10:54.381Z,98592.69
2022-07-29T22:13:20.879Z,98596.50
2022-07-29T22:15:47.450Z,98597.00
2022-07-29T22:18:20.458Z,98596.16
2022-07-29T22:20:47.823Z,98596.56
2022-07-29T22:23:14.289Z,98604.47
2022-07-29T22:25:40.748Z,98599.47
2022-07-29T22:28:07.218Z,98607.81
2022-07-29T22:30:33.719Z,98609.09
2022-07-29T22:33:00.322Z,98615.38
2022-07-29T22:35:26.862Z,98612.34
2022-07-29T22:37:54.153Z,98612.34
2022-07-29T22:40:20.722Z,98611.47
2022-07-29T22:42:47.256Z,98614.78
2022-07-29T22:45:13.788Z,98614.72
2022-07-29T22:47:48.133Z,98620.19
2022-07-29T22:50:15.614Z,98624.75
2022-07-29T22:52:42.193Z,98629.53
2022-07-29T22:55:08.833Z,98628.78
2022-07-29T22:57:35.451Z,98637.56
2022-07-29T23:00:02.415Z,98638.84
2022-07-29T23:02:29.432Z,98630.91
2022-07-29T23:04:55.990Z,98635.16
2022-07-29T23:07:23.278Z,98638.09
2022-07-29T23:09:49.717Z,98638.44
2022-07-29T23:12:16.151Z,98645.94
2022-07-29T23:14:42.621Z,98640.72
2022-07-29T23:17:09.135Z,98648.72
2022-07-29T23:19:35.638Z,98650.22
2022-07-29T23:22:02.080Z,98644.53
2022-07-29T23:24:28.549Z,98650.19
2022-07-29T23:26:55.049Z,98645.59
2022-07-29T23:29:21.593Z,98647.00
2022-07-29T23:31:48.512Z,98650.88
2022-07-29T23:34:15.404Z,98661.28
2022-07-29T23:36:42.410Z,98647.47
2022-07-29T23:39:11.336Z,98664.84
2022-07-29T23:41:38.004Z,98670.94
2022-07-29T23:44:04.998Z,98658.44
2022-07-29T23:46:31.487Z,98656.84
2022-07-29T23:48:58.021Z,98660.66
2022-07-29T23:51:24.895Z,98657.84
2022-07-29T23:53:53.663Z,98668.34
2022-07-29T23:56:21.115Z,98664.47
2022-07-29T23:58:47.592Z,98663.47
